Data for 02/06/2013

Time Sea-Level Adjusted Pressure Absolute Pressure Temperature Relative Humidity Dew Point   
(mb) (inHg) (mb) (inHg) (C) (F) (%) (C) (F)
00:05 1010 29.83 840 24.81 1.8 35.2 56 -6 21.2
00:10 1010 29.83 840 24.81 1.8 35.3 55 -6.1 20.9
00:15 1010 29.83 840 24.81 1.8 35.2 60 -5.2 22.7
00:20 1010 29.83 840 24.81 1.1 33.9 57 -6.4 20.4
00:25 1010 29.83 840 24.81 1.4 34.5 56 -6.5 20.2
00:30 1010 29.83 840 24.81 1.6 34.9 55 -6.4 20.4
00:35 1010 29.83 840 24.81 1.2 34.2 58 -6.2 20.8
00:40 1010 29.83 840 24.81 0.9 33.5 58 -6.6 20.1
00:45 1011 29.85 840 24.81 0.7 33.3 63 -5.6 22
00:50 1011 29.85 840 24.81 -0.4 31.3 70 -5.3 22.5
00:55 1011 29.85 840 24.81 -0.8 30.5 66 -6.3 20.6
01:00 1011 29.85 840 24.81 -0.3 31.5 62 -6.7 19.9
01:05 1011 29.85 840 24.81 0.4 32.8 58 -6.8 19.7
01:10 1011 29.85 840 24.81 0.9 33.7 56 -6.9 19.7
01:15 1011 29.85 840 24.81 1.3 34.3 55 -6.8 19.7
01:20 1011 29.85 840 24.81 1.6 34.9 52 -7.3 18.9
01:25 1011 29.85 840 24.81 1.9 35.4 53 -6.6 20.2
01:30 1011 29.85 840 24.81 1.7 35.1 53 -7 19.5
01:35 1011 29.85 840 24.81 1.7 35.1 54 -6.5 20.2
01:40 1011 29.85 840 24.81 1.3 34.3 54 -6.9 19.5
01:45 1011 29.85 840 24.81 1.3 34.4 53 -7.3 18.9
01:50 1011 29.85 840 24.81 1.4 34.5 57 -6.2 20.9
01:55 1011 29.85 840 24.81 0.8 33.4 57 -6.8 19.7
02:00 1011 29.85 840 24.81 0.7 33.3 58 -6.6 20.2
02:05 1011 29.85 840 24.81 0.5 33 58 -6.8 19.8
02:10 1011 29.85 840 24.81 0.6 33.1 58 -6.7 20
02:15 1011 29.85 840 24.81 0.9 33.7 53 -7.5 18.5
02:20 1011 29.85 840 24.81 1.8 35.2 49 -7.7 18.1
02:25 1011 29.85 840 24.81 2 35.6 53 -6.6 20.1
02:30 1011 29.85 840 24.81 1.7 35.1 51 -7.4 18.8
02:35 1011 29.85 840 24.81 2 35.5 50 -7.3 18.9
02:40 1011 29.85 840 24.81 2 35.7 50 -7.4 18.7
02:45 1011 29.85 840 24.81 2.2 35.9 51 -6.9 19.6
02:50 1011 29.85 841 24.83 1.9 35.5 52 -6.9 19.6
02:55 1011 29.85 841 24.83 1.8 35.3 52 -7.1 19.2
03:00 1011 29.85 841 24.83 1.9 35.4 54 -6.5 20.3
03:05 1012 29.88 841 24.83 1.8 35.2 52 -7 19.4
03:10 1012 29.88 841 24.83 2.1 35.8 52 -6.8 19.7
03:15 1012 29.88 841 24.83 2.2 35.9 53 -6.5 20.2
03:20 1012 29.88 841 24.83 1.9 35.4 54 -6.5 20.3
03:25 1012 29.88 841 24.83 1.7 35 54 -6.5 20.2
03:30 1012 29.88 841 24.83 1.6 34.8 55 -6.5 20.3
03:35 1012 29.88 841 24.83 1.6 34.9 54 -6.6 20.1
03:40 1012 29.88 842 24.86 1.6 35 55 -6.4 20.4
03:45 1012 29.88 842 24.86 1.5 34.7 56 -6.4 20.5
03:50 1012 29.88 842 24.86 1.4 34.6 56 -6.4 20.6
03:55 1013 29.91 842 24.86 1.4 34.5 57 -6.2 20.9
04:00 1013 29.91 842 24.86 1.2 34.1 58 -6.1 21
04:05 1013 29.91 842 24.86 1 33.8 59 -6.1 21.1
04:10 1013 29.91 842 24.86 0.9 33.6 60 -5.9 21.3
04:15 1013 29.91 842 24.86 0.8 33.5 61 -5.8 21.5
04:20 1013 29.91 842 24.86 0.8 33.4 62 -5.8 21.6
04:25 1013 29.91 842 24.86 0.7 33.2 63 -5.6 21.9
04:30 1013 29.91 842 24.86 0.6 33.1 64 -5.5 22.1
04:35 1013 29.91 842 24.86 0.5 32.8 65 -5.4 22.2
04:40 1013 29.91 842 24.86 0.3 32.6 65 -5.5 22.2
04:45 1013 29.91 842 24.86 0.1 32.2 66 -5.5 22.1
04:50 1013 29.91 842 24.86 -0.1 31.8 67 -5.5 22
04:55 1013 29.91 842 24.86 -0.2 31.7 67 -5.6 21.9
05:00 1013 29.91 842 24.86 -0.2 31.7 68 -5.5 22.2
05:05 1013 29.91 842 24.86 -0.2 31.7 68 -5.5 22.2
05:10 1013 29.91 842 24.86 -0.1 31.8 67 -5.5 22
05:15 1013 29.91 842 24.86 -0 32 67 -5.3 22.4
05:20 1013 29.91 842 24.86 0 32 67 -5.5 22.2
05:25 1013 29.91 843 24.89 0.2 32.4 66 -5.3 22.4
05:30 1013 29.91 843 24.89 0.3 32.6 66 -5.2 22.6
05:35 1013 29.91 843 24.89 0.4 32.8 66 -5.2 22.7
05:40 1014 29.94 843 24.89 0.4 32.7 66 -5.3 22.4
05:45 1014 29.94 843 24.89 0.4 32.7 65 -5.4 22.3
05:50 1014 29.94 843 24.89 0.4 32.8 65 -5.4 22.3
05:55 1014 29.94 843 24.89 0.5 32.9 65 -5.3 22.5
06:00 1014 29.94 843 24.89 0.6 33.1 65 -5.2 22.6
06:05 1014 29.94 843 24.89 0.6 33.1 65 -5.2 22.7
06:10 1014 29.94 843 24.89 0.6 33 65 -5.3 22.5
06:15 1014 29.94 843 24.89 0.6 33.1 65 -5.2 22.6
06:20 1014 29.94 843 24.89 0.5 32.8 66 -5.3 22.5
06:25 1014 29.94 843 24.89 0.2 32.3 66 -5.5 22.2
06:30 1014 29.94 843 24.89 -0 32 67 -5.4 22.2
06:35 1014 29.94 843 24.89 0 32 66 -5.5 22.1
06:40 1014 29.94 843 24.89 -0.1 31.9 67 -5.5 22.2
06:45 1014 29.94 843 24.89 -0 32 67 -5.4 22.3
06:50 1014 29.94 843 24.89 -0.1 31.9 67 -5.5 22
06:55 1014 29.94 843 24.89 -0 32 67 -5.5 22.1
07:00 1014 29.94 843 24.89 -0.1 31.8 68 -5.4 22.3
07:05 1014 29.94 843 24.89 -0.5 31.1 69 -5.6 22
07:10 1014 29.94 843 24.89 -0.3 31.4 67 -5.7 21.7
07:15 1014 29.94 843 24.89 -0.1 31.8 66 -5.6 21.9
07:20 1014 29.94 843 24.89 -0.1 31.8 67 -5.6 21.9
07:25 1014 29.94 843 24.89 -0.2 31.7 67 -5.6 21.9
07:30 1014 29.94 843 24.89 -0.3 31.4 67 -5.6 21.9
07:35 1014 29.94 843 24.89 -0.5 31.1 68 -5.8 21.6
07:40 1014 29.94 843 24.89 -0.6 30.9 68 -5.8 21.6
07:45 1014 29.94 843 24.89 -1 30.1 70 -5.9 21.3
07:50 1014 29.94 843 24.89 -0.9 30.3 69 -6 21.2
07:55 1014 29.94 843 24.89 -0.7 30.7 69 -5.8 21.6
08:00 1014 29.94 843 24.89 -1 30.3 69 -5.9 21.4
08:05 1014 29.94 843 24.89 -1.1 30.1 69 -6 21.2
08:10 1014 29.94 843 24.89 -1 30.1 70 -5.9 21.3
08:15 1014 29.94 843 24.89 -0.9 30.3 69 -5.9 21.3
08:20 1014 29.94 844 24.92 -0.8 30.5 68 -6 21.2
08:25 1014 29.94 844 24.92 -0.7 30.8 66 -6.2 20.8
08:30 1014 29.94 844 24.92 -0.4 31.2 65 -6.3 20.6
08:35 1014 29.94 844 24.92 -0.3 31.5 64 -6.3 20.7
08:40 1014 29.94 844 24.92 0 32 63 -6.2 20.8
08:45 1015 29.97 844 24.92 0.2 32.3 62 -6.2 20.8
08:50 1015 29.97 844 24.92 0.1 32.2 62 -6.2 20.8
08:55 1015 29.97 844 24.92 0.1 32.2 62 -6.2 20.8
09:00 1015 29.97 844 24.92 0.1 32.2 63 -6.1 21
09:05 1015 29.97 844 24.92 0 32 63 -6.2 20.9
09:10 1015 29.97 844 24.92 -0.1 31.9 63 -6.2 20.9
09:15 1015 29.97 844 24.92 -0.4 31.3 65 -6.2 20.8
09:20 1015 29.97 844 24.92 -0.6 31 64 -6.5 20.2
09:25 1015 29.97 844 24.92 -0.4 31.3 64 -6.4 20.5
09:30 1015 29.97 844 24.92 -0.4 31.4 64 -6.3 20.7
09:35 1015 29.97 844 24.92 -0.7 30.8 65 -6.4 20.5
09:40 1015 29.97 845 24.95 -1.4 29.6 68 -6.5 20.3
09:45 1015 29.97 845 24.95 -1.6 29.1 68 -6.8 19.7
09:50 1015 29.97 845 24.95 -1.4 29.4 68 -6.6 20.1
09:55 1016 30 845 24.95 -1.2 29.8 67 -6.6 20.1
10:00 1016 30 845 24.95 -0.9 30.4 66 -6.4 20.6
10:05 1016 30 845 24.95 -0.9 30.3 68 -6.2 20.9
10:10 1016 30 845 24.95 -0.8 30.6 65 -6.6 20.1
10:15 1016 30 845 24.95 -0.5 31.2 65 -6.3 20.7
10:20 1016 30 845 24.95 -0.3 31.5 63 -6.5 20.3
10:25 1016 30 845 24.95 0.4 32.7 60 -6.6 20.2
10:30 1016 30 845 24.95 0.8 33.5 59 -6.3 20.6
10:35 1016 30 845 24.95 1.7 35 56 -6.3 20.7
10:40 1016 30 845 24.95 2.5 36.5 52 -6.3 20.6
10:45 1016 30 845 24.95 2.3 36.1 54 -6 21.2
10:50 1016 30 845 24.95 1.8 35.3 55 -6.3 20.7
10:55 1016 30 845 24.95 2 35.5 53 -6.7 19.9
11:00 1016 30 845 24.95 2.1 35.7 53 -6.6 20.2
11:05 1016 30 845 24.95 2.3 36.2 52 -6.5 20.3
11:10 1016 30 845 24.95 2.5 36.5 52 -6.5 20.3
11:15 1016 30 845 24.95 3.1 37.6 48 -6.7 19.9
11:20 1016 30 845 24.95 3.6 38.5 47 -6.7 20
11:25 1016 30 845 24.95 3.7 38.7 46 -6.8 19.8
11:30 1016 30 845 24.95 4 39.1 46 -6.5 20.2
11:35 1016 30 845 24.95 3.8 38.9 49 -5.8 21.5
11:40 1016 30 845 24.95 3.7 38.7 49 -6.1 21
11:45 1016 30 845 24.95 3.2 37.8 51 -6 21.2
11:50 1016 30 845 24.95 3 37.4 51 -6.1 21.1
11:55 1016 30 845 24.95 2.9 37.2 52 -6 21.2
12:00 1016 30 845 24.95 2.4 36.4 50 -6.9 19.6
12:05 1016 30 845 24.95 2.4 36.3 50 -7 19.4
12:10 1016 30 845 24.95 2.4 36.2 50 -7 19.4
12:15 1016 30 845 24.95 2.6 36.6 50 -7 19.5
12:20 1016 30 845 24.95 2.7 36.9 49 -6.9 19.6
12:25 1016 30 845 24.95 3.2 37.7 48 -6.9 19.6
12:30 1016 30 845 24.95 3.5 38.3 47 -6.7 19.9
12:35 1016 30 845 24.95 4 39.3 44 -7.2 19
12:40 1016 30 845 24.95 4 39.2 46 -6.7 19.9
12:45 1016 30 845 24.95 4 39.2 45 -7 19.5
12:50 1016 30 846 24.98 3.8 38.8 45 -6.9 19.5
12:55 1016 30 846 24.98 3.3 37.9 49 -6.3 20.6
13:00 1016 30 846 24.98 3.1 37.5 48 -7 19.4
13:05 1016 30 845 24.95 3.2 37.8 47 -6.9 19.5
13:10 1016 30 845 24.95 3.7 38.6 45 -7.1 19.3
13:15 1016 30 845 24.95 3.9 39.1 46 -6.7 19.9
13:20 1016 30 845 24.95 3.7 38.6 47 -6.6 20.1
13:25 1016 30 845 24.95 3.4 38.1 49 -6.3 20.6
13:30 1016 30 845 24.95 3.1 37.6 48 -7 19.4
13:35 1016 30 845 24.95 3.3 38 48 -6.6 20.1
13:40 1016 30 845 24.95 2.6 36.7 47 -7.5 18.6
13:45 1016 30 845 24.95 2.8 37.1 46 -7.8 18
13:50 1016 30 845 24.95 3.5 38.3 44 -7.6 18.3
13:55 1016 30 845 24.95 4.3 39.7 38 -8.7 16.3
14:00 1016 30 845 24.95 4.3 39.8 38 -8.8 16.1
14:05 1016 30 845 24.95 4.5 40.2 38 -8.6 16.5
14:10 1016 30 845 24.95 4.9 40.8 36 -9 15.9
14:15 1016 30 845 24.95 4.6 40.3 38 -8.5 16.7
14:20 1016 30 845 24.95 4.1 39.4 37 -9.4 15.1
14:25 1016 30 845 24.95 4 39.3 36 -9.6 14.8
14:30 1016 30 845 24.95 4.2 39.6 36 -9.7 14.6
14:35 1016 30 845 24.95 4.1 39.4 38 -9.1 15.7
14:40 1016 30 845 24.95 4.1 39.4 36 -9.7 14.6
14:45 1016 30 845 24.95 4.2 39.6 37 -9.1 15.6
14:50 1016 30 845 24.95 4.1 39.4 36 -9.7 14.5
14:55 1016 30 845 24.95 4 39.3 37 -9.4 15
15:00 1016 30 845 24.95 4 39.2 37 -9.5 14.9
15:05 1016 30 845 24.95 4 39.2 38 -9.1 15.6
15:10 1016 30 845 24.95 4.1 39.4 40 -8.4 16.8
15:15 1016 30 845 24.95 4 39.2 39 -8.7 16.4
15:20 1016 30 845 24.95 4 39.2 40 -8.2 17.2
15:25 1016 30 845 24.95 4.2 39.6 39 -8.5 16.8
15:30 1016 30 845 24.95 4.2 39.6 39 -8.4 16.8
15:35 1016 30 845 24.95 4.6 40.2 38 -8.7 16.3
15:40 1016 30 845 24.95 5.4 41.7 33 -9.5 14.8
15:45 1016 30 845 24.95 5.8 42.5 33 -9.3 15.3
15:50 1016 30 845 24.95 6.1 42.9 32 -9.4 15.1
15:55 1016 30 845 24.95 6.2 43.1 33 -8.8 16.1
16:00 1016 30 845 24.95 5.4 41.7 36 -8.5 16.8
16:05 1016 30 845 24.95 4.7 40.4 40 -7.9 17.8
16:10 1016 30 845 24.95 3.7 38.6 42 -8 17.6
16:15 1016 30 845 24.95 3.7 38.6 42 -8 17.5
16:20 1016 30 845 24.95 3.8 38.9 41 -8.1 17.3
16:25 1016 30 845 24.95 3.7 38.6 42 -8.2 17.2
16:30 1016 30 845 24.95 3.4 38.2 41 -8.7 16.4
16:35 1016 30 845 24.95 3.6 38.5 40 -8.9 15.9
16:40 1016 30 845 24.95 3.6 38.4 41 -8.6 16.6
16:45 1016 30 845 24.95 3.7 38.6 40 -8.7 16.3
16:50 1016 30 846 24.98 3.8 38.8 38 -9.2 15.4
16:55 1017 30.03 846 24.98 3.7 38.7 38 -9.3 15.3
17:00 1017 30.03 846 24.98 3.9 38.9 38 -9.3 15.3
17:05 1017 30.03 846 24.98 3.8 38.9 36 -9.8 14.3
17:10 1017 30.03 846 24.98 3.8 38.9 37 -9.5 14.9
17:15 1017 30.03 846 24.98 3.8 38.9 37 -9.4 15
17:20 1017 30.03 846 24.98 3.7 38.7 38 -9.3 15.3
17:25 1017 30.03 846 24.98 3.6 38.5 38 -9.4 15.2
17:30 1017 30.03 846 24.98 3.6 38.4 38 -9.5 15
17:35 1017 30.03 846 24.98 3.5 38.3 39 -9.3 15.2
17:40 1017 30.03 846 24.98 3.5 38.3 39 -9.2 15.4
17:45 1017 30.03 846 24.98 3.5 38.3 39 -9.2 15.4
17:50 1017 30.03 846 24.98 3.5 38.2 39 -9.3 15.3
17:55 1017 30.03 846 24.98 3.3 38 39 -9.4 15.1
18:00 1017 30.03 846 24.98 3.2 37.8 36 -10.4 13.2
18:05 1017 30.03 846 24.98 3.1 37.7 36 -10.6 12.8
18:10 1017 30.03 846 24.98 3.3 37.9 38 -9.6 14.8
18:15 1017 30.03 846 24.98 3.2 37.8 41 -8.9 16.1
18:20 1017 30.03 846 24.98 3 37.4 43 -8.4 16.8
18:25 1017 30.03 846 24.98 2.8 37.1 44 -8.2 17.3
18:30 1017 30.03 846 24.98 2.6 36.6 45 -8.3 17
18:35 1017 30.03 846 24.98 2.5 36.5 43 -8.9 16
18:40 1017 30.03 846 24.98 2.4 36.3 44 -8.7 16.4
18:45 1017 30.03 846 24.98 2.2 36 46 -8.1 17.4
18:50 1017 30.03 846 24.98 1.9 35.4 47 -8.2 17.3
18:55 1017 30.03 846 24.98 1.7 35.1 48 -8 17.5
19:00 1017 30.03 846 24.98 1.6 34.9 48 -8.2 17.3
19:05 1017 30.03 846 24.98 1.6 34.8 48 -8.2 17.3
19:10 1017 30.03 846 24.98 1.5 34.6 48 -8.3 17
19:15 1017 30.03 846 24.98 1.4 34.6 48 -8.4 16.8
19:20 1017 30.03 847 25.01 1.5 34.7 50 -7.8 18
19:25 1017 30.03 847 25.01 1.4 34.4 52 -7.5 18.4
19:30 1017 30.03 847 25.01 1.2 34.1 50 -8 17.5
19:35 1017 30.03 847 25.01 1.3 34.4 50 -7.9 17.7
19:40 1018 30.06 847 25.01 1.4 34.5 49 -8.1 17.4
19:45 1018 30.06 847 25.01 1.4 34.6 50 -8 17.7
19:50 1018 30.06 847 25.01 1.3 34.4 51 -7.6 18.2
19:55 1018 30.06 847 25.01 1.2 34.1 52 -7.7 18.1
20:00 1018 30.06 847 25.01 1.2 34.1 51 -7.9 17.7
20:05 1018 30.06 847 25.01 1.1 34.1 52 -7.8 18
20:10 1018 30.06 847 25.01 1 33.8 53 -7.6 18.4
20:15 1018 30.06 847 25.01 1 33.8 52 -7.7 18.2
20:20 1018 30.06 847 25.01 1 33.9 51 -8 17.7
20:25 1018 30.06 847 25.01 1.1 34 50 -8.2 17.3
20:30 1018 30.06 847 25.01 1.3 34.3 51 -7.8 17.9
20:35 1018 30.06 847 25.01 1.3 34.4 49 -8.1 17.3
20:40 1018 30.06 847 25.01 1.3 34.3 52 -7.6 18.4
20:45 1018 30.06 847 25.01 1.2 34.2 50 -8 17.6
20:50 1018 30.06 847 25.01 1.2 34.2 51 -7.8 17.9
20:55 1018 30.06 847 25.01 0.7 33.3 55 -7.4 18.7
21:00 1018 30.06 847 25.01 0 32 55 -8 17.6
21:05 1018 30.06 847 25.01 -0.3 31.5 56 -8 17.7
21:10 1018 30.06 847 25.01 -0.7 30.8 57 -8.3 17.1
21:15 1018 30.06 847 25.01 -0.7 30.8 55 -8.5 16.6
21:20 1018 30.06 847 25.01 -0.4 31.2 55 -8.5 16.7
21:25 1018 30.06 847 25.01 -0.6 30.9 55 -8.5 16.7
21:30 1018 30.06 847 25.01 -1 30.1 56 -8.8 16.1
21:35 1018 30.06 847 25.01 -0.5 31.2 52 -9.1 15.6
21:40 1018 30.06 847 25.01 -0.1 31.8 51 -9 15.8
21:45 1018 30.06 847 25.01 -0.1 31.9 51 -9.1 15.5
21:50 1018 30.06 847 25.01 0.1 32.2 50 -9.2 15.4
21:55 1018 30.06 847 25.01 0.3 32.6 48 -9.4 15.1
22:00 1018 30.06 847 25.01 0.3 32.5 48 -9.5 14.9
22:05 1018 30.06 848 25.04 -0.1 31.9 49 -9.4 15.1
22:10 1018 30.06 848 25.04 -0.7 30.8 53 -9.2 15.5
22:15 1018 30.06 848 25.04 -1.3 29.6 53 -9.7 14.6
22:20 1018 30.06 848 25.04 -1.4 29.4 52 -10 13.9
22:25 1018 30.06 848 25.04 -1.4 29.4 52 -10 14
22:30 1019 30.09 848 25.04 -1.4 29.5 53 -9.9 14.2
22:35 1019 30.09 848 25.04 -1.6 29.1 54 -9.8 14.3
22:40 1019 30.09 848 25.04 -2.2 28.1 55 -9.9 14.1
22:45 1019 30.09 848 25.04 -2 28.4 53 -10.3 13.4
22:50 1019 30.09 848 25.04 -2.1 28.3 52 -10.7 12.7
22:55 1019 30.09 848 25.04 -2 28.3 53 -10.3 13.4
23:00 1019 30.09 848 25.04 -2.1 28.1 54 -10.2 13.6
23:05 1019 30.09 848 25.04 -2.6 27.4 56 -10.3 13.5
23:10 1019 30.09 848 25.04 -2.6 27.3 56 -10.3 13.4
23:15 1019 30.09 848 25.04 -2.5 27.5 55 -10.3 13.5
23:20 1019 30.09 848 25.04 -2.5 27.5 55 -10.3 13.4
23:25 1019 30.09 848 25.04 -2.5 27.5 54 -10.7 12.7
23:30 1019 30.09 848 25.04 -2.4 27.6 54 -10.6 12.8
23:35 1019 30.09 848 25.04 -2.5 27.6 55 -10.4 13.2
23:40 1019 30.09 848 25.04 -2.4 27.7 53 -10.6 12.9
23:45 1019 30.09 848 25.04 -2.7 27.2 55 -10.5 13.1
23:50 1019 30.09 848 25.04 -2.9 26.8 55 -10.8 12.5
23:55 1019 30.09 848 25.04 -3 26.6 55 -10.7 12.7
24:00 1019 30.09 848 25.04 -3.2 26.2 56 -10.9 12.5